KLHM

Lincoln Regional/Karl Harder Field Airport

Lincoln, California, USA
METAR KLHM 170015Z AUTO 32018G27KT 10SM CLR 15/M06 A2991 RMK AO1
Observed Flight Rules
Dec-17 @ 00:15 UTC (16 minutes ago) Visual Flight Rules
Wind Visibility Clouds
320° at 18 knots
 Gusting to 27 knots
10 miles
  • Clear skies
Temperatures Readings
Current 15°C / 59°F
Dewpoint -6°C / 21°F
Humidity 23%
Altimeter 29.91" Hg
Pressure 1013 hPa
Elevation 37
METAR KLHM 170015Z AUTO 32018G27KT 10SM CLR 15/M06 A2991 RMK AO1
Observed Flight Rules
Dec-17 @ 00:15 UTC
(16 minutes ago)
VFR
Wind Visibility
320° at 18 knots
 Gusting to 27 knots
10 miles
Clouds
  • Clear skies
Temperature Dewpoint
15°C / 59°F -6°C / 21°F
Humidity Altimeter Pressure
23% 29.91" Hg 1013 hPa